sensor_id;sensor_type;location;lat;lon;timestamp;pressure;altitude;pressure_sealevel;temperature;humidity
51289;BME280;37372;52.294;5.152;2023-01-28T00:01:15;103108.22;;;2.06;100.00
51289;BME280;37372;52.294;5.152;2023-01-28T00:03:41;103107.59;;;2.09;100.00
51289;BME280;37372;52.294;5.152;2023-01-28T00:06:09;103110.38;;;2.09;100.00
51289;BME280;37372;52.294;5.152;2023-01-28T00:08:36;103110.28;;;2.14;100.00
51289;BME280;37372;52.294;5.152;2023-01-28T00:11:03;103109.56;;;2.09;100.00
51289;BME280;37372;52.294;5.152;2023-01-28T00:13:29;103110.38;;;2.09;100.00
51289;BME280;37372;52.294;5.152;2023-01-28T00:15:59;103109.56;;;2.09;100.00
51289;BME280;37372;52.294;5.152;2023-01-28T00:18:26;103103.69;;;2.10;100.00
51289;BME280;37372;52.294;5.152;2023-01-28T00:20:56;103106.56;;;2.05;100.00
51289;BME280;37372;52.294;5.152;2023-01-28T00:23:22;103104.91;;;2.04;100.00
51289;BME280;37372;52.294;5.152;2023-01-28T00:25:48;103099.59;;;2.08;100.00
51289;BME280;37372;52.294;5.152;2023-01-28T00:28:13;103094.06;;;2.08;100.00
51289;BME280;37372;52.294;5.152;2023-01-28T00:30:38;103094.88;;;2.08;100.00
51289;BME280;37372;52.294;5.152;2023-01-28T00:33:04;103092.94;;;2.09;100.00
51289;BME280;37372;52.294;5.152;2023-01-28T00:35:29;103079.47;;;2.02;100.00
51289;BME280;37372;52.294;5.152;2023-01-28T00:37:55;103088.31;;;2.04;100.00
51289;BME280;37372;52.294;5.152;2023-01-28T00:40:20;103091.38;;;2.03;100.00
51289;BME280;37372;52.294;5.152;2023-01-28T00:42:45;103094.94;;;2.03;100.00
51289;BME280;37372;52.294;5.152;2023-01-28T00:45:11;103099.38;;;2.04;100.00
51289;BME280;37372;52.294;5.152;2023-01-28T00:47:36;103100.00;;;2.01;100.00
51289;BME280;37372;52.294;5.152;2023-01-28T00:50:02;103089.50;;;1.98;100.00
51289;BME280;37372;52.294;5.152;2023-01-28T00:52:28;103098.34;;;2.00;100.00
51289;BME280;37372;52.294;5.152;2023-01-28T00:54:54;103102.69;;;2.06;100.00
51289;BME280;37372;52.294;5.152;2023-01-28T00:57:21;103087.88;;;1.97;100.00
51289;BME280;37372;52.294;5.152;2023-01-28T00:59:47;103086.06;;;2.06;100.00
51289;BME280;37372;52.294;5.152;2023-01-28T01:02:12;103089.94;;;2.05;100.00
51289;BME280;37372;52.294;5.152;2023-01-28T01:04:39;103088.31;;;2.04;100.00
51289;BME280;37372;52.294;5.152;2023-01-28T01:07:05;103086.06;;;2.06;100.00
51289;BME280;37372;52.294;5.152;2023-01-28T01:09:31;103089.94;;;2.05;100.00
51289;BME280;37372;52.294;5.152;2023-01-28T01:11:56;103095.03;;;1.98;100.00
51289;BME280;37372;52.294;5.152;2023-01-28T01:14:21;103087.13;;;1.91;100.00
51289;BME280;37372;52.294;5.152;2023-01-28T01:16:47;103090.34;;;1.99;100.00
51289;BME280;37372;52.294;5.152;2023-01-28T01:19:12;103083.97;;;1.98;100.00
51289;BME280;37372;52.294;5.152;2023-01-28T01:21:38;103088.69;;;1.98;100.00
51289;BME280;37372;52.294;5.152;2023-01-28T01:24:03;103086.88;;;2.07;100.00
51289;BME280;37372;52.294;5.152;2023-01-28T01:26:29;103095.47;;;2.05;100.00
51289;BME280;37372;52.294;5.152;2023-01-28T01:28:54;103086.06;;;2.06;100.00
51289;BME280;37372;52.294;5.152;2023-01-28T01:31:20;103090.25;;;2.04;100.00
51289;BME280;37372;52.294;5.152;2023-01-28T01:33:47;103091.59;;;2.06;100.00
51289;BME280;37372;52.294;5.152;2023-01-28T01:36:15;103088.91;;;2.01;100.00
51289;BME280;37372;52.294;5.152;2023-01-28T01:38:41;103099.16;;;2.01;100.00
51289;BME280;37372;52.294;5.152;2023-01-28T01:41:19;103092.19;;;2.03;100.00
51289;BME280;37372;52.294;5.152;2023-01-28T01:43:47;103094.53;;;1.96;100.00
51289;BME280;37372;52.294;5.152;2023-01-28T01:46:16;103094.75;;;2.00;100.00
51289;BME280;37372;52.294;5.152;2023-01-28T01:48:43;103103.13;;;1.94;100.00
51289;BME280;37372;52.294;5.152;2023-01-28T01:51:11;103106.13;;;1.98;100.00
51289;BME280;37372;52.294;5.152;2023-01-28T01:53:42;103099.75;;;1.98;100.00
51289;BME280;37372;52.294;5.152;2023-01-28T01:56:12;103101.19;;;1.95;100.00
51289;BME280;37372;52.294;5.152;2023-01-28T01:58:41;103095.66;;;1.95;100.00
51289;BME280;37372;52.294;5.152;2023-01-28T02:01:07;103094.69;;;1.86;100.00
51289;BME280;37372;52.294;5.152;2023-01-28T02:03:39;103101.59;;;1.88;100.00
51289;BME280;37372;52.294;5.152;2023-01-28T02:06:09;103109.56;;;1.90;100.00
51289;BME280;37372;52.294;5.152;2023-01-28T02:08:35;103107.13;;;1.88;100.00
51289;BME280;37372;52.294;5.152;2023-01-28T02:11:04;103108.63;;;1.81;100.00
51289;BME280;37372;52.294;5.152;2023-01-28T02:13:34;103098.38;;;1.81;100.00
51289;BME280;37372;52.294;5.152;2023-01-28T02:16:00;103102.16;;;1.85;100.00
51289;BME280;37372;52.294;5.152;2023-01-28T02:18:27;103106.28;;;1.88;100.00
51289;BME280;37372;52.294;5.152;2023-01-28T02:21:09;103107.94;;;1.89;100.00
51289;BME280;37372;52.294;5.152;2023-01-28T02:29:34;103124.47;;;1.94;100.00
51289;BME280;37372;52.294;5.152;2023-01-28T02:32:11;103132.78;;;1.94;100.00
51289;BME280;37372;52.294;5.152;2023-01-28T02:34:50;103127.31;;;1.89;100.00
51289;BME280;37372;52.294;5.152;2023-01-28T02:37:26;103120.63;;;1.90;100.00
51289;BME280;37372;52.294;5.152;2023-01-28T02:39:57;103112.03;;;1.91;100.00
51289;BME280;37372;52.294;5.152;2023-01-28T02:42:31;103116.31;;;1.84;100.00
51289;BME280;37372;52.294;5.152;2023-01-28T02:44:57;103115.72;;;1.87;100.00
51289;BME280;37372;52.294;5.152;2023-01-28T02:47:22;103122.38;;;1.86;100.00
51289;BME280;37372;52.294;5.152;2023-01-28T02:50:12;103117.34;;;1.88;100.00
51289;BME280;37372;52.294;5.152;2023-01-28T03:01:09;103113.03;;;1.82;100.00
51289;BME280;37372;52.294;5.152;2023-01-28T03:06:11;103121.56;;;1.66;100.00
51289;BME280;37372;52.294;5.152;2023-01-28T03:08:52;103120.34;;;1.72;100.00
51289;BME280;37372;52.294;5.152;2023-01-28T03:11:40;103113.63;;;1.79;100.00
51289;BME280;37372;52.294;5.152;2023-01-28T03:14:29;103116.59;;;1.82;100.00
51289;BME280;37372;52.294;5.152;2023-01-28T03:17:20;103111.88;;;1.83;100.00
51289;BME280;37372;52.294;5.152;2023-01-28T03:20:07;103108.09;;;1.79;100.00
51289;BME280;37372;52.294;5.152;2023-01-28T03:22:53;103109.19;;;1.78;100.00
51289;BME280;37372;52.294;5.152;2023-01-28T03:25:42;103099.88;;;1.73;100.00
51289;BME280;37372;52.294;5.152;2023-01-28T03:28:29;103103.16;;;1.76;100.00
51289;BME280;37372;52.294;5.152;2023-01-28T03:31:16;103099.53;;;1.75;100.00
51289;BME280;37372;52.294;5.152;2023-01-28T03:34:03;103102.03;;;1.77;100.00
51289;BME280;37372;52.294;5.152;2023-01-28T03:36:48;103103.88;;;1.62;100.00
51289;BME280;37372;52.294;5.152;2023-01-28T03:39:16;103102.09;;;1.71;100.00
51289;BME280;37372;52.294;5.152;2023-01-28T03:41:42;103099.88;;;1.73;100.00
51289;BME280;37372;52.294;5.152;2023-01-28T03:44:08;103112.94;;;1.68;100.00
51289;BME280;37372;52.294;5.152;2023-01-28T03:46:52;103130.31;;;1.73;100.00
51289;BME280;37372;52.294;5.152;2023-01-28T03:49:17;103124.25;;;1.71;100.00
51289;BME280;37372;52.294;5.152;2023-01-28T03:51:43;103114.81;;;1.72;100.00
51289;BME280;37372;52.294;5.152;2023-01-28T03:54:10;103120.59;;;1.76;100.00
51289;BME280;37372;52.294;5.152;2023-01-28T03:56:36;103132.47;;;1.77;100.00
51289;BME280;37372;52.294;5.152;2023-01-28T03:59:08;103131.88;;;1.80;100.00
51289;BME280;37372;52.294;5.152;2023-01-28T04:01:33;103128.56;;;1.78;100.00
51289;BME280;37372;52.294;5.152;2023-01-28T04:03:58;103119.25;;;1.73;100.00
51289;BME280;37372;52.294;5.152;2023-01-28T04:06:24;103130.31;;;1.73;100.00
51289;BME280;37372;52.294;5.152;2023-01-28T04:08:49;103132.22;;;1.73;100.00
51289;BME280;37372;52.294;5.152;2023-01-28T04:11:20;103130.84;;;1.76;100.00
51289;BME280;37372;52.294;5.152;2023-01-28T04:13:47;103137.72;;;1.78;100.00
51289;BME280;37372;52.294;5.152;2023-01-28T04:16:14;103146.59;;;1.75;100.00
51289;BME280;37372;52.294;5.152;2023-01-28T04:18:41;103145.16;;;1.78;100.00
51289;BME280;37372;52.294;5.152;2023-01-28T04:21:06;103150.72;;;1.78;100.00
51289;BME280;37372;52.294;5.152;2023-01-28T04:23:32;103144.44;;;1.72;100.00
51289;BME280;37372;52.294;5.152;2023-01-28T04:25:57;103138.00;;;1.77;100.00
51289;BME280;37372;52.294;5.152;2023-01-28T04:28:23;103146.31;;;1.77;100.00
51289;BME280;37372;52.294;5.152;2023-01-28T04:30:48;103148.00;;;1.72;100.00
51289;BME280;37372;52.294;5.152;2023-01-28T04:33:14;103143.63;;;1.71;100.00
51289;BME280;37372;52.294;5.152;2023-01-28T04:35:39;103138.00;;;1.77;100.00
51289;BME280;37372;52.294;5.152;2023-01-28T04:38:04;103136.94;;;1.72;100.00
51289;BME280;37372;52.294;5.152;2023-01-28T04:40:30;103140.25;;;1.74;100.00
51289;BME280;37372;52.294;5.152;2023-01-28T04:42:56;103130.59;;;1.72;100.00
51289;BME280;37372;52.294;5.152;2023-01-28T04:45:22;103123.63;;;1.74;100.00
51289;BME280;37372;52.294;5.152;2023-01-28T04:47:48;103128.06;;;1.76;100.00
51289;BME280;37372;52.294;5.152;2023-01-28T04:50:13;103128.97;;;1.71;100.00
51289;BME280;37372;52.294;5.152;2023-01-28T04:52:38;103143.91;;;1.70;100.00
51289;BME280;37372;52.294;5.152;2023-01-28T04:55:04;103120.41;;;1.67;100.00
51289;BME280;37372;52.294;5.152;2023-01-28T04:57:30;103128.97;;;1.71;100.00
51289;BME280;37372;52.294;5.152;2023-01-28T04:59:56;103133.66;;;1.70;100.00
51289;BME280;37372;52.294;5.152;2023-01-28T05:02:21;103136.41;;;1.70;100.00
51289;BME280;37372;52.294;5.152;2023-01-28T05:04:46;103136.41;;;1.70;100.00
51289;BME280;37372;52.294;5.152;2023-01-28T05:07:12;103138.06;;;1.71;100.00
51289;BME280;37372;52.294;5.152;2023-01-28T05:09:37;103143.28;;;1.73;100.00
51289;BME280;37372;52.294;5.152;2023-01-28T05:12:03;103149.81;;;1.63;100.00
51289;BME280;37372;52.294;5.152;2023-01-28T05:14:28;103153.69;;;1.62;100.00
51289;BME280;37372;52.294;5.152;2023-01-28T05:16:53;103149.75;;;1.68;100.00
51289;BME280;37372;52.294;5.152;2023-01-28T05:19:19;103146.06;;;1.54;99.93
51289;BME280;37372;52.294;5.152;2023-01-28T05:21:44;103151.00;;;1.57;99.49
51289;BME280;37372;52.294;5.152;2023-01-28T05:24:10;103151.59;;;1.54;98.35
51289;BME280;37372;52.294;5.152;2023-01-28T05:26:36;103143.22;;;1.59;99.25
51289;BME280;37372;52.294;5.152;2023-01-28T05:29:02;103132.97;;;1.60;100.00
51289;BME280;37372;52.294;5.152;2023-01-28T05:31:27;103134.03;;;1.64;100.00
51289;BME280;37372;52.294;5.152;2023-01-28T05:33:52;103134.84;;;1.64;100.00
51289;BME280;37372;52.294;5.152;2023-01-28T05:36:18;103119.38;;;1.63;100.00
51289;BME280;37372;52.294;5.152;2023-01-28T05:38:44;103128.25;;;1.60;100.00
51289;BME280;37372;52.294;5.152;2023-01-28T05:41:09;103127.69;;;1.63;100.00
51289;BME280;37372;52.294;5.152;2023-01-28T05:43:34;103129.31;;;1.64;100.00
51289;BME280;37372;52.294;5.152;2023-01-28T05:46:00;103128.50;;;1.64;100.00
51289;BME280;37372;52.294;5.152;2023-01-28T05:48:25;103130.75;;;1.62;100.00
51289;BME280;37372;52.294;5.152;2023-01-28T05:50:51;103139.25;;;1.65;100.00
51289;BME280;37372;52.294;5.152;2023-01-28T05:53:16;103134.25;;;1.67;100.00
51289;BME280;37372;52.294;5.152;2023-01-28T05:55:42;103135.66;;;1.65;100.00
51289;BME280;37372;52.294;5.152;2023-01-28T05:58:07;103145.38;;;1.62;100.00
51289;BME280;37372;52.294;5.152;2023-01-28T06:00:32;103148.47;;;1.61;99.75
51289;BME280;37372;52.294;5.152;2023-01-28T06:02:58;103143.75;;;1.61;99.80
51289;BME280;37372;52.294;5.152;2023-01-28T06:05:23;103143.00;;;1.56;100.00
51289;BME280;37372;52.294;5.152;2023-01-28T06:07:49;103141.13;;;1.51;100.00
51289;BME280;37372;52.294;5.152;2023-01-28T06:10:14;103142.22;;;1.50;100.00
51289;BME280;37372;52.294;5.152;2023-01-28T06:12:42;103135.06;;;1.49;100.00
51289;BME280;37372;52.294;5.152;2023-01-28T06:15:08;103136.19;;;1.48;100.00
51289;BME280;37372;52.294;5.152;2023-01-28T06:17:33;103143.22;;;1.59;100.00
51289;BME280;37372;52.294;5.152;2023-01-28T06:19:59;103153.22;;;1.55;98.54
51289;BME280;37372;52.294;5.152;2023-01-28T06:22:24;103153.16;;;1.41;99.16
51289;BME280;37372;52.294;5.152;2023-01-28T06:24:49;103155.38;;;1.39;98.04
51289;BME280;37372;52.294;5.152;2023-01-28T06:27:15;103144.56;;;1.43;98.50
51289;BME280;37372;52.294;5.152;2023-01-28T06:29:40;103151.31;;;1.32;96.53
51289;BME280;37372;52.294;5.152;2023-01-28T06:32:05;103155.75;;;1.33;97.37
51289;BME280;37372;52.294;5.152;2023-01-28T06:34:31;103160.09;;;1.39;96.72
51289;BME280;37372;52.294;5.152;2023-01-28T06:36:56;103159.22;;;1.43;97.45
51289;BME280;37372;52.294;5.152;2023-01-28T06:39:22;103162.72;;;1.49;98.11
51289;BME280;37372;52.294;5.152;2023-01-28T06:41:48;103152.63;;;1.39;98.40
51289;BME280;37372;52.294;5.152;2023-01-28T06:44:14;103153.16;;;1.41;98.49
51289;BME280;37372;52.294;5.152;2023-01-28T06:46:39;103162.03;;;1.38;98.95
51289;BME280;37372;52.294;5.152;2023-01-28T06:49:04;103159.03;;;1.35;99.14
51289;BME280;37372;52.294;5.152;2023-01-28T06:51:30;103160.09;;;1.39;97.58
51289;BME280;37372;52.294;5.152;2023-01-28T06:53:55;103170.34;;;1.38;96.82
51289;BME280;37372;52.294;5.152;2023-01-28T06:56:21;103166.16;;;1.41;97.10
51289;BME280;37372;52.294;5.152;2023-01-28T06:58:46;103172.22;;;1.43;96.42
51289;BME280;37372;52.294;5.152;2023-01-28T07:01:11;103166.91;;;1.46;96.17
51289;BME280;37372;52.294;5.152;2023-01-28T07:03:37;103158.69;;;1.41;96.66
51289;BME280;37372;52.294;5.152;2023-01-28T07:06:02;103161.16;;;1.43;96.43
51289;BME280;37372;52.294;5.152;2023-01-28T07:08:28;103163.38;;;1.41;97.36
51289;BME280;37372;52.294;5.152;2023-01-28T07:10:53;103168.84;;;1.46;98.58
51289;BME280;37372;52.294;5.152;2023-01-28T07:13:19;103167.13;;;1.50;97.29
51289;BME280;37372;52.294;5.152;2023-01-28T07:15:44;103171.63;;;1.46;97.46
51289;BME280;37372;52.294;5.152;2023-01-28T07:18:09;103161.09;;;1.48;98.66
51289;BME280;37372;52.294;5.152;2023-01-28T07:20:35;103170.56;;;1.42;100.00
51289;BME280;37372;52.294;5.152;2023-01-28T07:23:01;103181.41;;;1.38;100.00
51289;BME280;37372;52.294;5.152;2023-01-28T07:25:26;103165.34;;;1.40;100.00
51289;BME280;37372;52.294;5.152;2023-01-28T07:27:52;103169.59;;;1.51;100.00
51289;BME280;37372;52.294;5.152;2023-01-28T07:30:19;103173.19;;;1.52;97.38
51289;BME280;37372;52.294;5.152;2023-01-28T07:32:45;103153.38;;;1.45;100.00
51289;BME280;37372;52.294;5.152;2023-01-28T07:35:11;103160.56;;;1.46;100.00
51289;BME280;37372;52.294;5.152;2023-01-28T07:37:36;103173.84;;;1.44;100.00
51289;BME280;37372;52.294;5.152;2023-01-28T07:40:02;103179.38;;;1.44;100.00
51289;BME280;37372;52.294;5.152;2023-01-28T07:42:27;103181.56;;;1.47;99.79
51289;BME280;37372;52.294;5.152;2023-01-28T07:44:53;103188.69;;;1.53;98.19
51289;BME280;37372;52.294;5.152;2023-01-28T07:47:18;103186.22;;;1.51;99.39
51289;BME280;37372;52.294;5.152;2023-01-28T07:49:44;103192.81;;;1.56;99.36
51289;BME280;37372;52.294;5.152;2023-01-28T07:52:09;103188.63;;;1.58;96.94
51289;BME280;37372;52.294;5.152;2023-01-28T07:54:35;103184.72;;;1.59;98.80
51289;BME280;37372;52.294;5.152;2023-01-28T07:57:01;103186.88;;;1.62;98.15
51289;BME280;37372;52.294;5.152;2023-01-28T07:59:26;103187.50;;;1.59;97.92
51289;BME280;37372;52.294;5.152;2023-01-28T08:01:51;103185.25;;;1.61;98.30
51289;BME280;37372;52.294;5.152;2023-01-28T08:04:18;103181.34;;;1.62;98.74
51289;BME280;37372;52.294;5.152;2023-01-28T08:06:44;103180.88;;;1.55;98.96
51289;BME280;37372;52.294;5.152;2023-01-28T08:09:09;103187.22;;;1.61;98.91
51289;BME280;37372;52.294;5.152;2023-01-28T08:11:37;103193.03;;;1.59;99.33
51289;BME280;37372;52.294;5.152;2023-01-28T08:14:03;103201.31;;;1.59;99.02
51289;BME280;37372;52.294;5.152;2023-01-28T08:16:29;103190.19;;;1.64;100.00
51289;BME280;37372;52.294;5.152;2023-01-28T08:18:55;103198.78;;;1.63;99.03
51289;BME280;37372;52.294;5.152;2023-01-28T08:21:21;103198.50;;;1.64;96.91
51289;BME280;37372;52.294;5.152;2023-01-28T08:23:46;103213.06;;;1.70;96.77
51289;BME280;37372;52.294;5.152;2023-01-28T08:26:12;103205.03;;;1.73;98.08
51289;BME280;37372;52.294;5.152;2023-01-28T08:28:37;103214.97;;;1.74;98.12
51289;BME280;37372;52.294;5.152;2023-01-28T08:31:02;103211.84;;;1.81;100.00
51289;BME280;37372;52.294;5.152;2023-01-28T08:33:28;103206.72;;;1.69;99.79
51289;BME280;37372;52.294;5.152;2023-01-28T08:35:53;103198.50;;;1.64;100.00
51289;BME280;37372;52.294;5.152;2023-01-28T08:38:19;103206.09;;;1.54;100.00
51289;BME280;37372;52.294;5.152;2023-01-28T08:40:46;103209.53;;;1.45;100.00
51289;BME280;37372;52.294;5.152;2023-01-28T08:43:11;103216.47;;;1.43;100.00
51289;BME280;37372;52.294;5.152;2023-01-28T08:45:38;103222.94;;;1.33;100.00
51289;BME280;37372;52.294;5.152;2023-01-28T08:48:06;103219.16;;;1.24;100.00
51289;BME280;37372;52.294;5.152;2023-01-28T08:50:37;103204.00;;;1.21;100.00
51289;BME280;37372;52.294;5.152;2023-01-28T08:53:14;103207.88;;;1.20;100.00
51289;BME280;37372;52.294;5.152;2023-01-28T08:55:40;103218.13;;;1.20;100.00
51289;BME280;37372;52.294;5.152;2023-01-28T08:58:09;103233.25;;;1.27;100.00
51289;BME280;37372;52.294;5.152;2023-01-28T09:00:35;103217.22;;;1.24;100.00
51289;BME280;37372;52.294;5.152;2023-01-28T09:03:01;103223.06;;;1.23;100.00
51289;BME280;37372;52.294;5.152;2023-01-28T09:05:26;103222.47;;;1.26;100.00
51289;BME280;37372;52.294;5.152;2023-01-28T09:07:51;103216.94;;;1.26;100.00
51289;BME280;37372;52.294;5.152;2023-01-28T09:10:17;103219.16;;;1.24;100.00
51289;BME280;37372;52.294;5.152;2023-01-28T09:12:44;103231.63;;;1.21;100.00
51289;BME280;37372;52.294;5.152;2023-01-28T09:15:10;103241.50;;;1.33;100.00
51289;BME280;37372;52.294;5.152;2023-01-28T09:17:35;103252.50;;;1.38;99.88
51289;BME280;37372;52.294;5.152;2023-01-28T09:20:01;103260.13;;;1.46;99.76
51289;BME280;37372;52.294;5.152;2023-01-28T09:22:26;103264.47;;;1.52;99.29
51289;BME280;37372;52.294;5.152;2023-01-28T09:24:52;103266.03;;;1.63;98.08
51289;BME280;37372;52.294;5.152;2023-01-28T09:27:17;103257.47;;;1.60;97.12
51289;BME280;37372;52.294;5.152;2023-01-28T09:29:43;103256.00;;;1.67;96.92
51289;BME280;37372;52.294;5.152;2023-01-28T09:32:08;103262.88;;;1.70;95.96
51289;BME280;37372;52.294;5.152;2023-01-28T09:34:33;103255.94;;;1.72;95.62
51289;BME280;37372;52.294;5.152;2023-01-28T09:36:59;103260.38;;;1.73;96.34
51289;BME280;37372;52.294;5.152;2023-01-28T09:39:24;103263.66;;;1.76;95.73
51289;BME280;37372;52.294;5.152;2023-01-28T09:45:01;103251.75;;;1.75;96.07
51289;BME280;37372;52.294;5.152;2023-01-28T09:47:49;103256.47;;;1.74;96.39
51289;BME280;37372;52.294;5.152;2023-01-28T09:50:31;103266.72;;;1.74;96.94
51289;BME280;37372;52.294;5.152;2023-01-28T09:53:03;103265.91;;;1.73;96.04
51289;BME280;37372;52.294;5.152;2023-01-28T09:55:42;103279.69;;;1.79;94.15
51289;BME280;37372;52.294;5.152;2023-01-28T09:58:14;103280.50;;;1.79;96.24
51289;BME280;37372;52.294;5.152;2023-01-28T10:14:35;103272.88;;;1.90;91.06
51289;BME280;37372;52.294;5.152;2023-01-28T10:19:49;103268.09;;;1.95;92.45
51289;BME280;37372;52.294;5.152;2023-01-28T10:22:21;103261.75;;;1.95;90.94
51289;BME280;37372;52.294;5.152;2023-01-28T10:24:53;103267.28;;;1.95;91.30
51289;BME280;37372;52.294;5.152;2023-01-28T10:27:22;103269.75;;;1.97;91.34
51289;BME280;37372;52.294;5.152;2023-01-28T10:29:49;103279.94;;;2.01;89.57
51289;BME280;37372;52.294;5.152;2023-01-28T10:32:33;103267.00;;;1.97;91.69
51289;BME280;37372;52.294;5.152;2023-01-28T10:34:58;103279.47;;;1.94;90.29
51289;BME280;37372;52.294;5.152;2023-01-28T10:37:26;103277.19;;;2.01;90.70
51289;BME280;37372;52.294;5.152;2023-01-28T10:39:55;103276.91;;;2.22;90.83
51289;BME280;37372;52.294;5.152;2023-01-28T10:42:34;103267.75;;;2.40;90.34
51289;BME280;37372;52.294;5.152;2023-01-28T10:45:27;103260.22;;;2.59;89.46
51289;BME280;37372;52.294;5.152;2023-01-28T10:50:23;103242.28;;;2.38;90.59
51289;BME280;37372;52.294;5.152;2023-01-28T10:52:58;103231.22;;;2.38;91.17
51289;BME280;37372;52.294;5.152;2023-01-28T10:55:27;103218.84;;;2.49;91.52
51289;BME280;37372;52.294;5.152;2023-01-28T10:57:54;103232.59;;;2.54;88.94
51289;BME280;37372;52.294;5.152;2023-01-28T11:02:47;103208.97;;;2.76;87.24
51289;BME280;37372;52.294;5.152;2023-01-28T11:05:21;103201.75;;;2.61;87.80
51289;BME280;37372;52.294;5.152;2023-01-28T11:07:47;103193.53;;;2.56;89.12
51289;BME280;37372;52.294;5.152;2023-01-28T11:10:40;103190.03;;;2.50;88.64
51289;BME280;37372;52.294;5.152;2023-01-28T11:13:15;103187.25;;;2.50;89.60
51289;BME280;37372;52.294;5.152;2023-01-28T11:15:55;103185.09;;;2.47;90.64
51289;BME280;37372;52.294;5.152;2023-01-28T11:18:34;103173.34;;;2.36;90.65
51289;BME280;37372;52.294;5.152;2023-01-28T11:21:03;103162.88;;;2.33;90.46
51289;BME280;37372;52.294;5.152;2023-01-28T11:23:31;103162.03;;;2.33;91.90
51289;BME280;37372;52.294;5.152;2023-01-28T11:28:29;103153.22;;;2.31;90.95
51289;BME280;37372;52.294;5.152;2023-01-28T11:30:57;103161.00;;;2.29;90.96
51289;BME280;37372;52.294;5.152;2023-01-28T11:33:32;103153.81;;;2.28;92.05
51289;BME280;37372;52.294;5.152;2023-01-28T11:38:47;103156.25;;;2.48;91.77
51289;BME280;37372;52.294;5.152;2023-01-28T11:41:13;103163.75;;;2.48;90.18
51289;BME280;37372;52.294;5.152;2023-01-28T11:43:39;103166.19;;;2.49;90.09
51289;BME280;37372;52.294;5.152;2023-01-28T11:46:17;103167.25;;;2.53;89.56
51289;BME280;37372;52.294;5.152;2023-01-28T11:51:47;103182.88;;;2.77;88.75
51289;BME280;37372;52.294;5.152;2023-01-28T11:54:38;103172.94;;;2.76;88.00
51289;BME280;37372;52.294;5.152;2023-01-28T11:57:22;103180.81;;;2.69;88.24
51289;BME280;37372;52.294;5.152;2023-01-28T12:05:18;103174.09;;;2.75;90.26
51289;BME280;37372;52.294;5.152;2023-01-28T12:08:08;103191.34;;;2.86;89.29
51289;BME280;37372;52.294;5.152;2023-01-28T12:10:42;103199.34;;;2.87;88.71
51289;BME280;37372;52.294;5.152;2023-01-28T12:18:59;103180.88;;;2.96;89.23
51289;BME280;37372;52.294;5.152;2023-01-28T12:27:22;103172.88;;;3.09;89.86
51289;BME280;37372;52.294;5.152;2023-01-28T12:38:32;103135.78;;;3.32;86.75
51289;BME280;37372;52.294;5.152;2023-01-28T12:41:35;103143.03;;;3.56;86.59
51289;BME280;37372;52.294;5.152;2023-01-28T12:44:07;103140.31;;;3.78;84.89
51289;BME280;37372;52.294;5.152;2023-01-28T12:49:12;103136.44;;;4.24;82.85
51289;BME280;37372;52.294;5.152;2023-01-28T12:51:50;103129.25;;;4.23;83.42
51289;BME280;37372;52.294;5.152;2023-01-28T12:54:19;103125.06;;;4.12;82.88
51289;BME280;37372;52.294;5.152;2023-01-28T12:56:53;103128.28;;;3.83;82.29
51289;BME280;37372;52.294;5.152;2023-01-28T12:59:33;103114.69;;;3.59;85.14
51289;BME280;37372;52.294;5.152;2023-01-28T13:02:19;103114.72;;;3.45;85.59
51289;BME280;37372;52.294;5.152;2023-01-28T13:07:58;103101.97;;;3.30;85.43
51289;BME280;37372;52.294;5.152;2023-01-28T13:10:40;103103.25;;;3.24;86.60
51289;BME280;37372;52.294;5.152;2023-01-28T13:13:08;103094.91;;;3.24;87.42
51289;BME280;37372;52.294;5.152;2023-01-28T13:15:42;103091.50;;;3.27;86.92
51289;BME280;37372;52.294;5.152;2023-01-28T13:18:29;103080.41;;;3.27;87.62
51289;BME280;37372;52.294;5.152;2023-01-28T13:20:56;103084.34;;;3.26;87.76
51289;BME280;37372;52.294;5.152;2023-01-28T13:23:45;103079.91;;;3.39;88.28
51289;BME280;37372;52.294;5.152;2023-01-28T13:26:30;103086.31;;;3.48;88.58
51289;BME280;37372;52.294;5.152;2023-01-28T13:31:41;103092.16;;;3.60;88.37
51289;BME280;37372;52.294;5.152;2023-01-28T13:34:24;103098.94;;;3.90;87.50
51289;BME280;37372;52.294;5.152;2023-01-28T13:36:50;103096.31;;;4.08;87.33
51289;BME280;37372;52.294;5.152;2023-01-28T13:39:20;103102.47;;;4.27;86.77
51289;BME280;37372;52.294;5.152;2023-01-28T13:41:49;103109.03;;;4.31;84.57
51289;BME280;37372;52.294;5.152;2023-01-28T13:44:35;103105.13;;;4.32;84.67
51289;BME280;37372;52.294;5.152;2023-01-28T13:49:37;103104.78;;;4.25;86.51
51289;BME280;37372;52.294;5.152;2023-01-28T13:55:16;103115.34;;;4.46;84.32
51289;BME280;37372;52.294;5.152;2023-01-28T14:15:06;103121.47;;;4.56;86.11
51289;BME280;37372;52.294;5.152;2023-01-28T14:17:46;103122.28;;;4.57;86.91
51289;BME280;37372;52.294;5.152;2023-01-28T14:20:32;103127.94;;;4.43;85.97
51289;BME280;37372;52.294;5.152;2023-01-28T14:23:04;103118.78;;;4.43;85.64
51289;BME280;37372;52.294;5.152;2023-01-28T14:25:41;103108.28;;;4.17;86.36
51289;BME280;37372;52.294;5.152;2023-01-28T14:28:23;103104.91;;;4.20;87.14
51289;BME280;37372;52.294;5.152;2023-01-28T14:31:01;103099.34;;;4.20;87.22
51289;BME280;37372;52.294;5.152;2023-01-28T14:33:30;103103.66;;;4.35;86.75
51289;BME280;37372;52.294;5.152;2023-01-28T14:35:56;103105.25;;;4.27;85.42
51289;BME280;37372;52.294;5.152;2023-01-28T14:38:23;103101.09;;;4.16;86.39
51289;BME280;37372;52.294;5.152;2023-01-28T14:40:50;103094.72;;;4.16;86.81
51289;BME280;37372;52.294;5.152;2023-01-28T14:43:22;103093.78;;;3.98;88.37
51289;BME280;37372;52.294;5.152;2023-01-28T14:46:39;103116.03;;;3.84;88.73
51289;BME280;37372;52.294;5.152;2023-01-28T14:51:57;103116.25;;;3.87;89.94
51289;BME280;37372;52.294;5.152;2023-01-28T14:57:33;103126.31;;;3.83;90.66
51289;BME280;37372;52.294;5.152;2023-01-28T15:00:02;103127.78;;;3.81;90.86